Aviation Digital Data Service (ADDS)

Output produced by METARs form (1810 UTC 19 August 2019)
found at http://www.aviationweather.gov/metar/data/
 
METAR text: NZAA 191800Z AUTO 05007KT 9999 -RA FEW029/// SCT034/// BKN042/// 10/07 Q1017 NOSIG
Conditions at: NZAA (AUCKLAND INTL AR, NZ) observed 1800 UTC 19 August 2019
Temperature: 10.0°C (50°F)
Dewpoint: 7.0°C (45°F) [RH = 82%]
Pressure (altimeter): 30.03 inches Hg (1017.0 mb)
Winds: from the NE (50 degrees) at 8 MPH (7 knots; 3.6 m/s)
Visibility: 6 or more miles (10+ km)
Ceiling: 4200 feet AGL
Clouds: few clouds at 2900 feet AGL
scattered clouds at 3400 feet AGL
broken clouds at 4200 feet AGL
Weather: -RA  (light rain)

METAR text: NZAA 191730Z AUTO 07004KT 9999 -RA SCT037/// BKN047/// BKN055/// 09/07 Q1017 NOSIG
Conditions at: NZAA (AUCKLAND INTL AR, NZ) observed 1730 UTC 19 August 2019
Temperature: 9.0°C (48°F)
Dewpoint: 7.0°C (45°F) [RH = 87%]
Pressure (altimeter): 30.03 inches Hg (1017.0 mb)
Winds: from the ENE (70 degrees) at 5 MPH (4 knots; 2.1 m/s)
Visibility: 6 or more miles (10+ km)
Ceiling: 4700 feet AGL
Clouds: scattered clouds at 3700 feet AGL
broken clouds at 4700 feet AGL
broken clouds at 5500 feet AGL
Weather: -RA  (light rain)

METAR text: NZAA 191700Z AUTO 11005KT 9999 FEW045/// BKN050/// 09/07 Q1017 NOSIG
Conditions at: NZAA (AUCKLAND INTL AR, NZ) observed 1700 UTC 19 August 2019
Temperature: 9.0°C (48°F)
Dewpoint: 7.0°C (45°F) [RH = 87%]
Pressure (altimeter): 30.03 inches Hg (1017.0 mb)
Winds: from the ESE (110 degrees) at 6 MPH (5 knots; 2.6 m/s)
Visibility: 6 or more miles (10+ km)
Ceiling: 5000 feet AGL
Clouds: few clouds at 4500 feet AGL
broken clouds at 5000 feet AGL
Weather: no significant weather observed at this time

METAR text: NZAA 191630Z AUTO 10005KT 9999 OVC049/// 09/07 Q1018 NOSIG
Conditions at: NZAA (AUCKLAND INTL AR, NZ) observed 1630 UTC 19 August 2019
Temperature: 9.0°C (48°F)
Dewpoint: 7.0°C (45°F) [RH = 87%]
Pressure (altimeter): 30.06 inches Hg (1018.0 mb)
Winds: from the E (100 degrees) at 6 MPH (5 knots; 2.6 m/s)
Visibility: 6 or more miles (10+ km)
Ceiling: 4900 feet AGL
Clouds: overcast cloud deck at 4900 feet AGL
Weather: no significant weather observed at this time

METAR text: NZAA 191600Z AUTO 11004KT 9999 BKN050/// 09/07 Q1018 NOSIG
Conditions at: NZAA (AUCKLAND INTL AR, NZ) observed 1600 UTC 19 August 2019
Temperature: 9.0°C (48°F)
Dewpoint: 7.0°C (45°F) [RH = 87%]
Pressure (altimeter): 30.06 inches Hg (1018.0 mb)
Winds: from the ESE (110 degrees) at 5 MPH (4 knots; 2.1 m/s)
Visibility: 6 or more miles (10+ km)
Ceiling: 5000 feet AGL
Clouds: broken clouds at 5000 feet AGL
Weather: no significant weather observed at this time

METAR text: NZAA 191530Z AUTO 10005KT 060V120 9999 -RA FEW029/// SCT034/// BKN050/// 09/07 Q1018 NOSIG
Conditions at: NZAA (AUCKLAND INTL AR, NZ) observed 1530 UTC 19 August 2019
Temperature: 9.0°C (48°F)
Dewpoint: 7.0°C (45°F) [RH = 87%]
Pressure (altimeter): 30.06 inches Hg (1018.0 mb)
Winds: from the E (100 degrees) at 6 MPH (5 knots; 2.6 m/s)
Visibility: 6 or more miles (10+ km)
Ceiling: 5000 feet AGL
Clouds: few clouds at 2900 feet AGL
scattered clouds at 3400 feet AGL
broken clouds at 5000 feet AGL
Weather: -RA  (light rain)

METAR text: NZAA 191500Z AUTO 10002KT 9999 SCT043/// BKN050/// 09/07 Q1019 NOSIG
Conditions at: NZAA (AUCKLAND INTL AR, NZ) observed 1500 UTC 19 August 2019
Temperature: 9.0°C (48°F)
Dewpoint: 7.0°C (45°F) [RH = 87%]
Pressure (altimeter): 30.09 inches Hg (1019.0 mb)
Winds: from the E (100 degrees) at 2 MPH (2 knots; 1.0 m/s)
Visibility: 6 or more miles (10+ km)
Ceiling: 5000 feet AGL
Clouds: scattered clouds at 4300 feet AGL
broken clouds at 5000 feet AGL
Weather: no significant weather observed at this time

METAR text: NZAA 191430Z AUTO 11003KT 9999 SCT043/// BKN055/// 09/07 Q1020 NOSIG
Conditions at: NZAA (AUCKLAND INTL AR, NZ) observed 1430 UTC 19 August 2019
Temperature: 9.0°C (48°F)
Dewpoint: 7.0°C (45°F) [RH = 87%]
Pressure (altimeter): 30.12 inches Hg (1020.0 mb)
Winds: from the ESE (110 degrees) at 3 MPH (3 knots; 1.5 m/s)
Visibility: 6 or more miles (10+ km)
Ceiling: 5500 feet AGL
Clouds: scattered clouds at 4300 feet AGL
broken clouds at 5500 feet AGL
Weather: no significant weather observed at this time

METAR text: NZAA 191400Z AUTO 13003KT 9999 FEW036/// BKN055/// 09/07 Q1020 NOSIG
Conditions at: NZAA (AUCKLAND INTL AR, NZ) observed 1400 UTC 19 August 2019
Temperature: 9.0°C (48°F)
Dewpoint: 7.0°C (45°F) [RH = 87%]
Pressure (altimeter): 30.12 inches Hg (1020.0 mb)
Winds: from the SE (130 degrees) at 3 MPH (3 knots; 1.5 m/s)
Visibility: 6 or more miles (10+ km)
Ceiling: 5500 feet AGL
Clouds: few clouds at 3600 feet AGL
broken clouds at 5500 feet AGL
Weather: no significant weather observed at this time

METAR text: NZAA 191330Z AUTO 04002KT 9999 SCT035/// BKN045/// BKN055/// 09/06 Q1021 NOSIG
Conditions at: NZAA (AUCKLAND INTL AR, NZ) observed 1330 UTC 19 August 2019
Temperature: 9.0°C (48°F)
Dewpoint: 6.0°C (43°F) [RH = 81%]
Pressure (altimeter): 30.15 inches Hg (1021.0 mb)
Winds: from the NE (40 degrees) at 2 MPH (2 knots; 1.0 m/s)
Visibility: 6 or more miles (10+ km)
Ceiling: 4500 feet AGL
Clouds: scattered clouds at 3500 feet AGL
broken clouds at 4500 feet AGL
broken clouds at 5500 feet AGL
Weather: no significant weather observed at this time

METAR text: NZAA 191300Z AUTO 05004KT 010V080 9999 BKN049/// 10/06 Q1021 NOSIG
Conditions at: NZAA (AUCKLAND INTL AR, NZ) observed 1300 UTC 19 August 2019
Temperature: 10.0°C (50°F)
Dewpoint: 6.0°C (43°F) [RH = 76%]
Pressure (altimeter): 30.15 inches Hg (1021.0 mb)
Winds: from the NE (50 degrees) at 5 MPH (4 knots; 2.1 m/s)
Visibility: 6 or more miles (10+ km)
Ceiling: 4900 feet AGL
Clouds: broken clouds at 4900 feet AGL
Weather: no significant weather observed at this time

METAR text: NZAA 191230Z AUTO 09003KT 9999 BKN050/// 09/06 Q1021 NOSIG
Conditions at: NZAA (AUCKLAND INTL AR, NZ) observed 1230 UTC 19 August 2019
Temperature: 9.0°C (48°F)
Dewpoint: 6.0°C (43°F) [RH = 81%]
Pressure (altimeter): 30.15 inches Hg (1021.0 mb)
Winds: from the E (90 degrees) at 3 MPH (3 knots; 1.5 m/s)
Visibility: 6 or more miles (10+ km)
Ceiling: 5000 feet AGL
Clouds: broken clouds at 5000 feet AGL
Weather: no significant weather observed at this time

METAR text: NZAA 191200Z AUTO 09004KT 9999 FEW029/// SCT043/// BKN050/// 10/06 Q1022 NOSIG
Conditions at: NZAA (AUCKLAND INTL AR, NZ) observed 1200 UTC 19 August 2019
Temperature: 10.0°C (50°F)
Dewpoint: 6.0°C (43°F) [RH = 76%]
Pressure (altimeter): 30.18 inches Hg (1022.0 mb)
Winds: from the E (90 degrees) at 5 MPH (4 knots; 2.1 m/s)
Visibility: 6 or more miles (10+ km)
Ceiling: 5000 feet AGL
Clouds: few clouds at 2900 feet AGL
scattered clouds at 4300 feet AGL
broken clouds at 5000 feet AGL
Weather: no significant weather observed at this time

METAR text: NZAA 191130Z AUTO 10006KT 9999 SCT037/// BKN045/// OVC055/// 10/06 Q1022 NOSIG
Conditions at: NZAA (AUCKLAND INTL AR, NZ) observed 1130 UTC 19 August 2019
Temperature: 10.0°C (50°F)
Dewpoint: 6.0°C (43°F) [RH = 76%]
Pressure (altimeter): 30.18 inches Hg (1022.0 mb)
Winds: from the E (100 degrees) at 7 MPH (6 knots; 3.1 m/s)
Visibility: 6 or more miles (10+ km)
Ceiling: 4500 feet AGL
Clouds: scattered clouds at 3700 feet AGL
broken clouds at 4500 feet AGL
overcast cloud deck at 5500 feet AGL
Weather: no significant weather observed at this time

METAR text: NZAA 191100Z AUTO 11006KT 9999 OVC050/// 10/07 Q1022 NOSIG
Conditions at: NZAA (AUCKLAND INTL AR, NZ) observed 1100 UTC 19 August 2019
Temperature: 10.0°C (50°F)
Dewpoint: 7.0°C (45°F) [RH = 82%]
Pressure (altimeter): 30.18 inches Hg (1022.0 mb)
Winds: from the ESE (110 degrees) at 7 MPH (6 knots; 3.1 m/s)
Visibility: 6 or more miles (10+ km)
Ceiling: 5000 feet AGL
Clouds: overcast cloud deck at 5000 feet AGL
Weather: no significant weather observed at this time

METAR text: NZAA 191030Z AUTO 12004KT 9999 OVC046/// 10/07 Q1022 NOSIG
Conditions at: NZAA (AUCKLAND INTL AR, NZ) observed 1030 UTC 19 August 2019
Temperature: 10.0°C (50°F)
Dewpoint: 7.0°C (45°F) [RH = 82%]
Pressure (altimeter): 30.18 inches Hg (1022.0 mb)
Winds: from the ESE (120 degrees) at 5 MPH (4 knots; 2.1 m/s)
Visibility: 6 or more miles (10+ km)
Ceiling: 4600 feet AGL
Clouds: overcast cloud deck at 4600 feet AGL
Weather: no significant weather observed at this time

METAR text: NZAA 191000Z AUTO 12009KT 9999 OVC048/// 10/07 Q1022 NOSIG
Conditions at: NZAA (AUCKLAND INTL AR, NZ) observed 1000 UTC 19 August 2019
Temperature: 10.0°C (50°F)
Dewpoint: 7.0°C (45°F) [RH = 82%]
Pressure (altimeter): 30.18 inches Hg (1022.0 mb)
Winds: from the ESE (120 degrees) at 10 MPH (9 knots; 4.6 m/s)
Visibility: 6 or more miles (10+ km)
Ceiling: 4800 feet AGL
Clouds: overcast cloud deck at 4800 feet AGL
Weather: no significant weather observed at this time

METAR text: NZAA 190930Z AUTO 12007KT 9999 OVC047/// 10/07 Q1023 NOSIG
Conditions at: NZAA (AUCKLAND INTL AR, NZ) observed 0930 UTC 19 August 2019
Temperature: 10.0°C (50°F)
Dewpoint: 7.0°C (45°F) [RH = 82%]
Pressure (altimeter): 30.21 inches Hg (1023.0 mb)
Winds: from the ESE (120 degrees) at 8 MPH (7 knots; 3.6 m/s)
Visibility: 6 or more miles (10+ km)
Ceiling: 4700 feet AGL
Clouds: overcast cloud deck at 4700 feet AGL
Weather: no significant weather observed at this time

METAR text: NZAA 190900Z AUTO 13006KT 9999 OVC048/// 10/07 Q1023 NOSIG
Conditions at: NZAA (AUCKLAND INTL AR, NZ) observed 0900 UTC 19 August 2019
Temperature: 10.0°C (50°F)
Dewpoint: 7.0°C (45°F) [RH = 82%]
Pressure (altimeter): 30.21 inches Hg (1023.0 mb)
Winds: from the SE (130 degrees) at 7 MPH (6 knots; 3.1 m/s)
Visibility: 6 or more miles (10+ km)
Ceiling: 4800 feet AGL
Clouds: overcast cloud deck at 4800 feet AGL
Weather: no significant weather observed at this time

METAR text: NZAA 190830Z AUTO 13005KT 9999 OVC047/// 10/07 Q1023 NOSIG
Conditions at: NZAA (AUCKLAND INTL AR, NZ) observed 0830 UTC 19 August 2019
Temperature: 10.0°C (50°F)
Dewpoint: 7.0°C (45°F) [RH = 82%]
Pressure (altimeter): 30.21 inches Hg (1023.0 mb)
Winds: from the SE (130 degrees) at 6 MPH (5 knots; 2.6 m/s)
Visibility: 6 or more miles (10+ km)
Ceiling: 4700 feet AGL
Clouds: overcast cloud deck at 4700 feet AGL
Weather: no significant weather observed at this time

METAR text: NZAA 190800Z AUTO 10008KT 070V150 9999 BKN046/// 10/06 Q1023 NOSIG
Conditions at: NZAA (AUCKLAND INTL AR, NZ) observed 0800 UTC 19 August 2019
Temperature: 10.0°C (50°F)
Dewpoint: 6.0°C (43°F) [RH = 76%]
Pressure (altimeter): 30.21 inches Hg (1023.0 mb)
Winds: from the E (100 degrees) at 9 MPH (8 knots; 4.1 m/s)
Visibility: 6 or more miles (10+ km)
Ceiling: 4600 feet AGL
Clouds: broken clouds at 4600 feet AGL
Weather: no significant weather observed at this time

METAR text: NZAA 190730Z AUTO 13004KT 9999 OVC050/// 09/06 Q1023 NOSIG
Conditions at: NZAA (AUCKLAND INTL AR, NZ) observed 0730 UTC 19 August 2019
Temperature: 9.0°C (48°F)
Dewpoint: 6.0°C (43°F) [RH = 81%]
Pressure (altimeter): 30.21 inches Hg (1023.0 mb)
Winds: from the SE (130 degrees) at 5 MPH (4 knots; 2.1 m/s)
Visibility: 6 or more miles (10+ km)
Ceiling: 5000 feet AGL
Clouds: overcast cloud deck at 5000 feet AGL
Weather: no significant weather observed at this time

METAR text: NZAA 190700Z AUTO 09003KT 9999 SCT045/// BKN050/// 10/05 Q1022 NOSIG
Conditions at: NZAA (AUCKLAND INTL AR, NZ) observed 0700 UTC 19 August 2019
Temperature: 10.0°C (50°F)
Dewpoint: 5.0°C (41°F) [RH = 71%]
Pressure (altimeter): 30.18 inches Hg (1022.0 mb)
Winds: from the E (90 degrees) at 3 MPH (3 knots; 1.5 m/s)
Visibility: 6 or more miles (10+ km)
Ceiling: 5000 feet AGL
Clouds: scattered clouds at 4500 feet AGL
broken clouds at 5000 feet AGL
Weather: no significant weather observed at this time

METAR text: NZAA 190630Z AUTO 08006KT 9999 BKN047/// 10/06 Q1022 NOSIG
Conditions at: NZAA (AUCKLAND INTL AR, NZ) observed 0630 UTC 19 August 2019
Temperature: 10.0°C (50°F)
Dewpoint: 6.0°C (43°F) [RH = 76%]
Pressure (altimeter): 30.18 inches Hg (1022.0 mb)
Winds: from the E (80 degrees) at 7 MPH (6 knots; 3.1 m/s)
Visibility: 6 or more miles (10+ km)
Ceiling: 4700 feet AGL
Clouds: broken clouds at 4700 feet AGL
Weather: no significant weather observed at this time

METAR text: NZAA 190600Z AUTO 08008KT 9999 NCD 10/06 Q1022 NOSIG
Conditions at: NZAA (AUCKLAND INTL AR, NZ) observed 0600 UTC 19 August 2019
Temperature: 10.0°C (50°F)
Dewpoint: 6.0°C (43°F) [RH = 76%]
Pressure (altimeter): 30.18 inches Hg (1022.0 mb)
Winds: from the E (80 degrees) at 9 MPH (8 knots; 4.1 m/s)
Visibility: 6 or more miles (10+ km)
Ceiling: at least 12,000 feet AGL
Clouds: sky clear below 12,000 feet AGL
Weather: no significant weather observed at this time

METAR text: NZAA 190530Z AUTO 07011KT 9999 BKN049/// 11/06 Q1022 NOSIG
Conditions at: NZAA (AUCKLAND INTL AR, NZ) observed 0530 UTC 19 August 2019
Temperature: 11.0°C (52°F)
Dewpoint: 6.0°C (43°F) [RH = 71%]
Pressure (altimeter): 30.18 inches Hg (1022.0 mb)
Winds: from the ENE (70 degrees) at 13 MPH (11 knots; 5.7 m/s)
Visibility: 6 or more miles (10+ km)
Ceiling: 4900 feet AGL
Clouds: broken clouds at 4900 feet AGL
Weather: no significant weather observed at this time

METAR text: NZAA 190500Z AUTO 06012KT 9999 BKN049/// 12/06 Q1022 NOSIG
Conditions at: NZAA (AUCKLAND INTL AR, NZ) observed 0500 UTC 19 August 2019
Temperature: 12.0°C (54°F)
Dewpoint: 6.0°C (43°F) [RH = 67%]
Pressure (altimeter): 30.18 inches Hg (1022.0 mb)
Winds: from the ENE (60 degrees) at 14 MPH (12 knots; 6.2 m/s)
Visibility: 6 or more miles (10+ km)
Ceiling: 4900 feet AGL
Clouds: broken clouds at 4900 feet AGL
Weather: no significant weather observed at this time

METAR text: NZAA 190430Z AUTO 07012KT 030V100 9999 FEW040/// BKN049/// 12/05 Q1022 NOSIG
Conditions at: NZAA (AUCKLAND INTL AR, NZ) observed 0430 UTC 19 August 2019
Temperature: 12.0°C (54°F)
Dewpoint: 5.0°C (41°F) [RH = 62%]
Pressure (altimeter): 30.18 inches Hg (1022.0 mb)
Winds: from the ENE (70 degrees) at 14 MPH (12 knots; 6.2 m/s)
Visibility: 6 or more miles (10+ km)
Ceiling: 4900 feet AGL
Clouds: few clouds at 4000 feet AGL
broken clouds at 4900 feet AGL
Weather: no significant weather observed at this time

METAR text: NZAA 190400Z AUTO 08012KT 9999 SCT040/// 13/05 Q1022 NOSIG
Conditions at: NZAA (AUCKLAND INTL AR, NZ) observed 0400 UTC 19 August 2019
Temperature: 13.0°C (55°F)
Dewpoint: 5.0°C (41°F) [RH = 58%]
Pressure (altimeter): 30.18 inches Hg (1022.0 mb)
Winds: from the E (80 degrees) at 14 MPH (12 knots; 6.2 m/s)
Visibility: 6 or more miles (10+ km)
Ceiling: at least 12,000 feet AGL
Clouds: scattered clouds at 4000 feet AGL
Weather: no significant weather observed at this time

METAR text: NZAA 190330Z AUTO 07012KT 9999 SCT044/// 12/05 Q1022 NOSIG
Conditions at: NZAA (AUCKLAND INTL AR, NZ) observed 0330 UTC 19 August 2019
Temperature: 12.0°C (54°F)
Dewpoint: 5.0°C (41°F) [RH = 62%]
Pressure (altimeter): 30.18 inches Hg (1022.0 mb)
Winds: from the ENE (70 degrees) at 14 MPH (12 knots; 6.2 m/s)
Visibility: 6 or more miles (10+ km)
Ceiling: at least 12,000 feet AGL
Clouds: scattered clouds at 4400 feet AGL
Weather: no significant weather observed at this time

METAR text: NZAA 190300Z AUTO 08011KT 9999 OVC046/// 13/04 Q1022 NOSIG
Conditions at: NZAA (AUCKLAND INTL AR, NZ) observed 0300 UTC 19 August 2019
Temperature: 13.0°C (55°F)
Dewpoint: 4.0°C (39°F) [RH = 54%]
Pressure (altimeter): 30.18 inches Hg (1022.0 mb)
Winds: from the E (80 degrees) at 13 MPH (11 knots; 5.7 m/s)
Visibility: 6 or more miles (10+ km)
Ceiling: 4600 feet AGL
Clouds: overcast cloud deck at 4600 feet AGL
Weather: no significant weather observed at this time

METAR text: NZAA 190230Z AUTO 13010KT 090V160 9999 BKN048/// 12/05 Q1023 NOSIG
Conditions at: NZAA (AUCKLAND INTL AR, NZ) observed 0230 UTC 19 August 2019
Temperature: 12.0°C (54°F)
Dewpoint: 5.0°C (41°F) [RH = 62%]
Pressure (altimeter): 30.21 inches Hg (1023.0 mb)
Winds: from the SE (130 degrees) at 12 MPH (10 knots; 5.1 m/s)
Visibility: 6 or more miles (10+ km)
Ceiling: 4800 feet AGL
Clouds: broken clouds at 4800 feet AGL
Weather: no significant weather observed at this time

METAR text: NZAA 190200Z AUTO 10009KT 040V140 9999 BKN049/// 13/05 Q1023 NOSIG
Conditions at: NZAA (AUCKLAND INTL AR, NZ) observed 0200 UTC 19 August 2019
Temperature: 13.0°C (55°F)
Dewpoint: 5.0°C (41°F) [RH = 58%]
Pressure (altimeter): 30.21 inches Hg (1023.0 mb)
Winds: from the E (100 degrees) at 10 MPH (9 knots; 4.6 m/s)
Visibility: 6 or more miles (10+ km)
Ceiling: 4900 feet AGL
Clouds: broken clouds at 4900 feet AGL
Weather: no significant weather observed at this time

METAR text: NZAA 190130Z AUTO 11010KT 050V150 9999 FEW043/// BKN050/// 12/06 Q1023 NOSIG
Conditions at: NZAA (AUCKLAND INTL AR, NZ) observed 0130 UTC 19 August 2019
Temperature: 12.0°C (54°F)
Dewpoint: 6.0°C (43°F) [RH = 67%]
Pressure (altimeter): 30.21 inches Hg (1023.0 mb)
Winds: from the ESE (110 degrees) at 12 MPH (10 knots; 5.1 m/s)
Visibility: 6 or more miles (10+ km)
Ceiling: 5000 feet AGL
Clouds: few clouds at 4300 feet AGL
broken clouds at 5000 feet AGL
Weather: no significant weather observed at this time

METAR text: NZAA 190100Z AUTO 10010KT 070V140 9999 SCT046/// 13/05 Q1024 NOSIG
Conditions at: NZAA (AUCKLAND INTL AR, NZ) observed 0100 UTC 19 August 2019
Temperature: 13.0°C (55°F)
Dewpoint: 5.0°C (41°F) [RH = 58%]
Pressure (altimeter): 30.24 inches Hg (1024.0 mb)
Winds: from the E (100 degrees) at 12 MPH (10 knots; 5.1 m/s)
Visibility: 6 or more miles (10+ km)
Ceiling: at least 12,000 feet AGL
Clouds: scattered clouds at 4600 feet AGL
Weather: no significant weather observed at this time

METAR text: NZAA 190030Z AUTO 10010KT 050V140 9999 BKN043/// 13/05 Q1024 NOSIG
Conditions at: NZAA (AUCKLAND INTL AR, NZ) observed 0030 UTC 19 August 2019
Temperature: 13.0°C (55°F)
Dewpoint: 5.0°C (41°F) [RH = 58%]
Pressure (altimeter): 30.24 inches Hg (1024.0 mb)
Winds: from the E (100 degrees) at 12 MPH (10 knots; 5.1 m/s)
Visibility: 6 or more miles (10+ km)
Ceiling: 4300 feet AGL
Clouds: broken clouds at 4300 feet AGL
Weather: no significant weather observed at this time

METAR text: NZAA 190000Z AUTO 10010KT 9999 SCT045/// 12/04 Q1025 NOSIG
Conditions at: NZAA (AUCKLAND INTL AR, NZ) observed 0000 UTC 19 August 2019
Temperature: 12.0°C (54°F)
Dewpoint: 4.0°C (39°F) [RH = 58%]
Pressure (altimeter): 30.27 inches Hg (1025.0 mb)
Winds: from the E (100 degrees) at 12 MPH (10 knots; 5.1 m/s)
Visibility: 6 or more miles (10+ km)
Ceiling: at least 12,000 feet AGL
Clouds: scattered clouds at 4500 feet AGL
Weather: no significant weather observed at this time

METAR text: NZAA 182330Z AUTO 09010KT 9999 NCD 13/04 Q1025 NOSIG
Conditions at: NZAA (AUCKLAND INTL AR, NZ) observed 2330 UTC 18 August 2019
Temperature: 13.0°C (55°F)
Dewpoint: 4.0°C (39°F) [RH = 54%]
Pressure (altimeter): 30.27 inches Hg (1025.0 mb)
Winds: from the E (90 degrees) at 12 MPH (10 knots; 5.1 m/s)
Visibility: 6 or more miles (10+ km)
Ceiling: at least 12,000 feet AGL
Clouds: sky clear below 12,000 feet AGL
Weather: no significant weather observed at this time

METAR text: NZAA 182300Z AUTO 10006KT 070V150 9999 NCD 12/04 Q1025 NOSIG
Conditions at: NZAA (AUCKLAND INTL AR, NZ) observed 2300 UTC 18 August 2019
Temperature: 12.0°C (54°F)
Dewpoint: 4.0°C (39°F) [RH = 58%]
Pressure (altimeter): 30.27 inches Hg (1025.0 mb)
Winds: from the E (100 degrees) at 7 MPH (6 knots; 3.1 m/s)
Visibility: 6 or more miles (10+ km)
Ceiling: at least 12,000 feet AGL
Clouds: sky clear below 12,000 feet AGL
Weather: no significant weather observed at this time

METAR text: NZAA 182230Z AUTO 12006KT 080V150 9999 NCD 11/04 Q1025 NOSIG
Conditions at: NZAA (AUCKLAND INTL AR, NZ) observed 2230 UTC 18 August 2019
Temperature: 11.0°C (52°F)
Dewpoint: 4.0°C (39°F) [RH = 62%]
Pressure (altimeter): 30.27 inches Hg (1025.0 mb)
Winds: from the ESE (120 degrees) at 7 MPH (6 knots; 3.1 m/s)
Visibility: 6 or more miles (10+ km)
Ceiling: at least 12,000 feet AGL
Clouds: sky clear below 12,000 feet AGL
Weather: no significant weather observed at this time

METAR text: NZAA 182200Z AUTO 13005KT 100V160 9999 NCD 10/04 Q1025 NOSIG
Conditions at: NZAA (AUCKLAND INTL AR, NZ) observed 2200 UTC 18 August 2019
Temperature: 10.0°C (50°F)
Dewpoint: 4.0°C (39°F) [RH = 66%]
Pressure (altimeter): 30.27 inches Hg (1025.0 mb)
Winds: from the SE (130 degrees) at 6 MPH (5 knots; 2.6 m/s)
Visibility: 6 or more miles (10+ km)
Ceiling: at least 12,000 feet AGL
Clouds: sky clear below 12,000 feet AGL
Weather: no significant weather observed at this time

METAR text: NZAA 182130Z AUTO 12005KT 9999 NCD 09/03 Q1025 NOSIG
Conditions at: NZAA (AUCKLAND INTL AR, NZ) observed 2130 UTC 18 August 2019
Temperature: 9.0°C (48°F)
Dewpoint: 3.0°C (37°F) [RH = 66%]
Pressure (altimeter): 30.27 inches Hg (1025.0 mb)
Winds: from the ESE (120 degrees) at 6 MPH (5 knots; 2.6 m/s)
Visibility: 6 or more miles (10+ km)
Ceiling: at least 12,000 feet AGL
Clouds: sky clear below 12,000 feet AGL
Weather: no significant weather observed at this time

METAR text: NZAA 182100Z AUTO 21002KT 9999 NCD 07/03 Q1025 NOSIG
Conditions at: NZAA (AUCKLAND INTL AR, NZ) observed 2100 UTC 18 August 2019
Temperature: 7.0°C (45°F)
Dewpoint: 3.0°C (37°F) [RH = 76%]
Pressure (altimeter): 30.27 inches Hg (1025.0 mb)
Winds: from the SSW (210 degrees) at 2 MPH (2 knots; 1.0 m/s)
Visibility: 6 or more miles (10+ km)
Ceiling: at least 12,000 feet AGL
Clouds: sky clear below 12,000 feet AGL
Weather: no significant weather observed at this time

METAR text: NZAA 182030Z AUTO 18003KT 9999 NCD 06/03 Q1025 NOSIG
Conditions at: NZAA (AUCKLAND INTL AR, NZ) observed 2030 UTC 18 August 2019
Temperature: 6.0°C (43°F)
Dewpoint: 3.0°C (37°F) [RH = 81%]
Pressure (altimeter): 30.27 inches Hg (1025.0 mb)
Winds: from the S (180 degrees) at 3 MPH (3 knots; 1.5 m/s)
Visibility: 6 or more miles (10+ km)
Ceiling: at least 12,000 feet AGL
Clouds: sky clear below 12,000 feet AGL
Weather: no significant weather observed at this time

METAR text: NZAA 182000Z AUTO 17004KT 9999 NCD 05/02 Q1025 NOSIG
Conditions at: NZAA (AUCKLAND INTL AR, NZ) observed 2000 UTC 18 August 2019
Temperature: 5.0°C (41°F)
Dewpoint: 2.0°C (36°F) [RH = 81%]
Pressure (altimeter): 30.27 inches Hg (1025.0 mb)
Winds: from the S (170 degrees) at 5 MPH (4 knots; 2.1 m/s)
Visibility: 6 or more miles (10+ km)
Ceiling: at least 12,000 feet AGL
Clouds: sky clear below 12,000 feet AGL
Weather: no significant weather observed at this time

METAR text: NZAA 181930Z AUTO 17005KT 9999 NCD 04/01 Q1025 NOSIG
Conditions at: NZAA (AUCKLAND INTL AR, NZ) observed 1930 UTC 18 August 2019
Temperature: 4.0°C (39°F)
Dewpoint: 1.0°C (34°F) [RH = 81%]
Pressure (altimeter): 30.27 inches Hg (1025.0 mb)
Winds: from the S (170 degrees) at 6 MPH (5 knots; 2.6 m/s)
Visibility: 6 or more miles (10+ km)
Ceiling: at least 12,000 feet AGL
Clouds: sky clear below 12,000 feet AGL
Weather: no significant weather observed at this time

METAR text: NZAA 181900Z AUTO 16005KT 9999 NCD 04/01 Q1024 NOSIG
Conditions at: NZAA (AUCKLAND INTL AR, NZ) observed 1900 UTC 18 August 2019
Temperature: 4.0°C (39°F)
Dewpoint: 1.0°C (34°F) [RH = 81%]
Pressure (altimeter): 30.24 inches Hg (1024.0 mb)
Winds: from the SSE (160 degrees) at 6 MPH (5 knots; 2.6 m/s)
Visibility: 6 or more miles (10+ km)
Ceiling: at least 12,000 feet AGL
Clouds: sky clear below 12,000 feet AGL
Weather: no significant weather observed at this time

METAR text: NZAA 181830Z AUTO 18005KT 9999 NCD 03/01 Q1024 NOSIG
Conditions at: NZAA (AUCKLAND INTL AR, NZ) observed 1830 UTC 18 August 2019
Temperature: 3.0°C (37°F)
Dewpoint: 1.0°C (34°F) [RH = 87%]
Pressure (altimeter): 30.24 inches Hg (1024.0 mb)
Winds: from the S (180 degrees) at 6 MPH (5 knots; 2.6 m/s)
Visibility: 6 or more miles (10+ km)
Ceiling: at least 12,000 feet AGL
Clouds: sky clear below 12,000 feet AGL
Weather: no significant weather observed at this time

METAR text: NZAA 181800Z AUTO 17005KT 9999 NCD 03/01 Q1024 NOSIG
Conditions at: NZAA (AUCKLAND INTL AR, NZ) observed 1800 UTC 18 August 2019
Temperature: 3.0°C (37°F)
Dewpoint: 1.0°C (34°F) [RH = 87%]
Pressure (altimeter): 30.24 inches Hg (1024.0 mb)
Winds: from the S (170 degrees) at 6 MPH (5 knots; 2.6 m/s)
Visibility: 6 or more miles (10+ km)
Ceiling: at least 12,000 feet AGL
Clouds: sky clear below 12,000 feet AGL
Weather: no significant weather observed at this time

METAR text: NZAA 181730Z AUTO 17007KT 9999 NCD 04/01 Q1024 NOSIG
Conditions at: NZAA (AUCKLAND INTL AR, NZ) observed 1730 UTC 18 August 2019
Temperature: 4.0°C (39°F)
Dewpoint: 1.0°C (34°F) [RH = 81%]
Pressure (altimeter): 30.24 inches Hg (1024.0 mb)
Winds: from the S (170 degrees) at 8 MPH (7 knots; 3.6 m/s)
Visibility: 6 or more miles (10+ km)
Ceiling: at least 12,000 feet AGL
Clouds: sky clear below 12,000 feet AGL
Weather: no significant weather observed at this time

METAR text: NZAA 181700Z AUTO 16006KT 9999 NCD 04/02 Q1024 NOSIG
Conditions at: NZAA (AUCKLAND INTL AR, NZ) observed 1700 UTC 18 August 2019
Temperature: 4.0°C (39°F)
Dewpoint: 2.0°C (36°F) [RH = 87%]
Pressure (altimeter): 30.24 inches Hg (1024.0 mb)
Winds: from the SSE (160 degrees) at 7 MPH (6 knots; 3.1 m/s)
Visibility: 6 or more miles (10+ km)
Ceiling: at least 12,000 feet AGL
Clouds: sky clear below 12,000 feet AGL
Weather: no significant weather observed at this time

METAR text: NZAA 181630Z AUTO 15007KT 9999 NCD 05/02 Q1024 NOSIG
Conditions at: NZAA (AUCKLAND INTL AR, NZ) observed 1630 UTC 18 August 2019
Temperature: 5.0°C (41°F)
Dewpoint: 2.0°C (36°F) [RH = 81%]
Pressure (altimeter): 30.24 inches Hg (1024.0 mb)
Winds: from the SSE (150 degrees) at 8 MPH (7 knots; 3.6 m/s)
Visibility: 6 or more miles (10+ km)
Ceiling: at least 12,000 feet AGL
Clouds: sky clear below 12,000 feet AGL
Weather: no significant weather observed at this time

METAR text: NZAA 181600Z AUTO 15009KT 9999 NCD 05/02 Q1024 NOSIG
Conditions at: NZAA (AUCKLAND INTL AR, NZ) observed 1600 UTC 18 August 2019
Temperature: 5.0°C (41°F)
Dewpoint: 2.0°C (36°F) [RH = 81%]
Pressure (altimeter): 30.24 inches Hg (1024.0 mb)
Winds: from the SSE (150 degrees) at 10 MPH (9 knots; 4.6 m/s)
Visibility: 6 or more miles (10+ km)
Ceiling: at least 12,000 feet AGL
Clouds: sky clear below 12,000 feet AGL
Weather: no significant weather observed at this time

METAR text: NZAA 181530Z AUTO 15009KT 9999 NCD 06/02 Q1024 NOSIG
Conditions at: NZAA (AUCKLAND INTL AR, NZ) observed 1530 UTC 18 August 2019
Temperature: 6.0°C (43°F)
Dewpoint: 2.0°C (36°F) [RH = 75%]
Pressure (altimeter): 30.24 inches Hg (1024.0 mb)
Winds: from the SSE (150 degrees) at 10 MPH (9 knots; 4.6 m/s)
Visibility: 6 or more miles (10+ km)
Ceiling: at least 12,000 feet AGL
Clouds: sky clear below 12,000 feet AGL
Weather: no significant weather observed at this time

METAR text: NZAA 181500Z AUTO 15008KT 9999 NCD 06/02 Q1024 NOSIG
Conditions at: NZAA (AUCKLAND INTL AR, NZ) observed 1500 UTC 18 August 2019
Temperature: 6.0°C (43°F)
Dewpoint: 2.0°C (36°F) [RH = 75%]
Pressure (altimeter): 30.24 inches Hg (1024.0 mb)
Winds: from the SSE (150 degrees) at 9 MPH (8 knots; 4.1 m/s)
Visibility: 6 or more miles (10+ km)
Ceiling: at least 12,000 feet AGL
Clouds: sky clear below 12,000 feet AGL
Weather: no significant weather observed at this time

METAR text: NZAA 181430Z AUTO 16007KT 9999 NCD 06/02 Q1024 NOSIG
Conditions at: NZAA (AUCKLAND INTL AR, NZ) observed 1430 UTC 18 August 2019
Temperature: 6.0°C (43°F)
Dewpoint: 2.0°C (36°F) [RH = 75%]
Pressure (altimeter): 30.24 inches Hg (1024.0 mb)
Winds: from the SSE (160 degrees) at 8 MPH (7 knots; 3.6 m/s)
Visibility: 6 or more miles (10+ km)
Ceiling: at least 12,000 feet AGL
Clouds: sky clear below 12,000 feet AGL
Weather: no significant weather observed at this time

METAR text: NZAA 181400Z AUTO 16007KT 9999 NCD 06/02 Q1024 NOSIG
Conditions at: NZAA (AUCKLAND INTL AR, NZ) observed 1400 UTC 18 August 2019
Temperature: 6.0°C (43°F)
Dewpoint: 2.0°C (36°F) [RH = 75%]
Pressure (altimeter): 30.24 inches Hg (1024.0 mb)
Winds: from the SSE (160 degrees) at 8 MPH (7 knots; 3.6 m/s)
Visibility: 6 or more miles (10+ km)
Ceiling: at least 12,000 feet AGL
Clouds: sky clear below 12,000 feet AGL
Weather: no significant weather observed at this time

METAR text: NZAA 181330Z AUTO 15006KT 110V180 9999 NCD 07/01 Q1024 NOSIG
Conditions at: NZAA (AUCKLAND INTL AR, NZ) observed 1330 UTC 18 August 2019
Temperature: 7.0°C (45°F)
Dewpoint: 1.0°C (34°F) [RH = 66%]
Pressure (altimeter): 30.24 inches Hg (1024.0 mb)
Winds: from the SSE (150 degrees) at 7 MPH (6 knots; 3.1 m/s)
Visibility: 6 or more miles (10+ km)
Ceiling: at least 12,000 feet AGL
Clouds: sky clear below 12,000 feet AGL
Weather: no significant weather observed at this time

METAR text: NZAA 181300Z AUTO 12008KT 9999 NCD 07/02 Q1024 NOSIG
Conditions at: NZAA (AUCKLAND INTL AR, NZ) observed 1300 UTC 18 August 2019
Temperature: 7.0°C (45°F)
Dewpoint: 2.0°C (36°F) [RH = 70%]
Pressure (altimeter): 30.24 inches Hg (1024.0 mb)
Winds: from the ESE (120 degrees) at 9 MPH (8 knots; 4.1 m/s)
Visibility: 6 or more miles (10+ km)
Ceiling: at least 12,000 feet AGL
Clouds: sky clear below 12,000 feet AGL
Weather: no significant weather observed at this time

METAR text: NZAA 181230Z AUTO 13010KT 9999 NCD 08/01 Q1024 NOSIG
Conditions at: NZAA (AUCKLAND INTL AR, NZ) observed 1230 UTC 18 August 2019
Temperature: 8.0°C (46°F)
Dewpoint: 1.0°C (34°F) [RH = 61%]
Pressure (altimeter): 30.24 inches Hg (1024.0 mb)
Winds: from the SE (130 degrees) at 12 MPH (10 knots; 5.1 m/s)
Visibility: 6 or more miles (10+ km)
Ceiling: at least 12,000 feet AGL
Clouds: sky clear below 12,000 feet AGL
Weather: no significant weather observed at this time

METAR text: NZAA 181200Z AUTO 12010KT 9999 NCD 08/02 Q1024 NOSIG
Conditions at: NZAA (AUCKLAND INTL AR, NZ) observed 1200 UTC 18 August 2019
Temperature: 8.0°C (46°F)
Dewpoint: 2.0°C (36°F) [RH = 66%]
Pressure (altimeter): 30.24 inches Hg (1024.0 mb)
Winds: from the ESE (120 degrees) at 12 MPH (10 knots; 5.1 m/s)
Visibility: 6 or more miles (10+ km)
Ceiling: at least 12,000 feet AGL
Clouds: sky clear below 12,000 feet AGL
Weather: no significant weather observed at this time

METAR text: NZAA 181130Z AUTO 12010KT 9999 NCD 08/02 Q1024 NOSIG
Conditions at: NZAA (AUCKLAND INTL AR, NZ) observed 1130 UTC 18 August 2019
Temperature: 8.0°C (46°F)
Dewpoint: 2.0°C (36°F) [RH = 66%]
Pressure (altimeter): 30.24 inches Hg (1024.0 mb)
Winds: from the ESE (120 degrees) at 12 MPH (10 knots; 5.1 m/s)
Visibility: 6 or more miles (10+ km)
Ceiling: at least 12,000 feet AGL
Clouds: sky clear below 12,000 feet AGL
Weather: no significant weather observed at this time

METAR text: NZAA 181100Z AUTO 13012KT 9999 NCD 08/03 Q1024 NOSIG
Conditions at: NZAA (AUCKLAND INTL AR, NZ) observed 1100 UTC 18 August 2019
Temperature: 8.0°C (46°F)
Dewpoint: 3.0°C (37°F) [RH = 71%]
Pressure (altimeter): 30.24 inches Hg (1024.0 mb)
Winds: from the SE (130 degrees) at 14 MPH (12 knots; 6.2 m/s)
Visibility: 6 or more miles (10+ km)
Ceiling: at least 12,000 feet AGL
Clouds: sky clear below 12,000 feet AGL
Weather: no significant weather observed at this time

METAR text: NZAA 181030Z AUTO 13012KT 9999 SCT070/// 08/03 Q1023 NOSIG
Conditions at: NZAA (AUCKLAND INTL AR, NZ) observed 1030 UTC 18 August 2019
Temperature: 8.0°C (46°F)
Dewpoint: 3.0°C (37°F) [RH = 71%]
Pressure (altimeter): 30.21 inches Hg (1023.0 mb)
Winds: from the SE (130 degrees) at 14 MPH (12 knots; 6.2 m/s)
Visibility: 6 or more miles (10+ km)
Ceiling: at least 12,000 feet AGL
Clouds: scattered clouds at 7000 feet AGL
Weather: no significant weather observed at this time

METAR text: NZAA 181000Z AUTO 12012KT 9999 OVC070/// 09/05 Q1023 NOSIG
Conditions at: NZAA (AUCKLAND INTL AR, NZ) observed 1000 UTC 18 August 2019
Temperature: 9.0°C (48°F)
Dewpoint: 5.0°C (41°F) [RH = 76%]
Pressure (altimeter): 30.21 inches Hg (1023.0 mb)
Winds: from the ESE (120 degrees) at 14 MPH (12 knots; 6.2 m/s)
Visibility: 6 or more miles (10+ km)
Ceiling: 7000 feet AGL
Clouds: overcast cloud deck at 7000 feet AGL
Weather: no significant weather observed at this time

METAR text: NZAA 180930Z AUTO 11006KT 080V150 9999 BKN070/// 08/05 Q1023 NOSIG
Conditions at: NZAA (AUCKLAND INTL AR, NZ) observed 0930 UTC 18 August 2019
Temperature: 8.0°C (46°F)
Dewpoint: 5.0°C (41°F) [RH = 81%]
Pressure (altimeter): 30.21 inches Hg (1023.0 mb)
Winds: from the ESE (110 degrees) at 7 MPH (6 knots; 3.1 m/s)
Visibility: 6 or more miles (10+ km)
Ceiling: 7000 feet AGL
Clouds: broken clouds at 7000 feet AGL
Weather: no significant weather observed at this time

METAR text: NZAA 180900Z AUTO 10006KT 9999 BKN070/// 08/06 Q1023 NOSIG
Conditions at: NZAA (AUCKLAND INTL AR, NZ) observed 0900 UTC 18 August 2019
Temperature: 8.0°C (46°F)
Dewpoint: 6.0°C (43°F) [RH = 87%]
Pressure (altimeter): 30.21 inches Hg (1023.0 mb)
Winds: from the E (100 degrees) at 7 MPH (6 knots; 3.1 m/s)
Visibility: 6 or more miles (10+ km)
Ceiling: 7000 feet AGL
Clouds: broken clouds at 7000 feet AGL
Weather: no significant weather observed at this time

METAR text: NZAA 180830Z AUTO 13007KT 9999 NCD 09/06 Q1022 NOSIG
Conditions at: NZAA (AUCKLAND INTL AR, NZ) observed 0830 UTC 18 August 2019
Temperature: 9.0°C (48°F)
Dewpoint: 6.0°C (43°F) [RH = 81%]
Pressure (altimeter): 30.18 inches Hg (1022.0 mb)
Winds: from the SE (130 degrees) at 8 MPH (7 knots; 3.6 m/s)
Visibility: 6 or more miles (10+ km)
Ceiling: at least 12,000 feet AGL
Clouds: sky clear below 12,000 feet AGL
Weather: no significant weather observed at this time

METAR text: NZAA 180800Z AUTO 13008KT 9999 FEW070/// 09/06 Q1022 NOSIG
Conditions at: NZAA (AUCKLAND INTL AR, NZ) observed 0800 UTC 18 August 2019
Temperature: 9.0°C (48°F)
Dewpoint: 6.0°C (43°F) [RH = 81%]
Pressure (altimeter): 30.18 inches Hg (1022.0 mb)
Winds: from the SE (130 degrees) at 9 MPH (8 knots; 4.1 m/s)
Visibility: 6 or more miles (10+ km)
Ceiling: at least 12,000 feet AGL
Clouds: few clouds at 7000 feet AGL
Weather: no significant weather observed at this time

METAR text: NZAA 180730Z AUTO 14006KT 9999 BKN070/// 09/06 Q1021 NOSIG
Conditions at: NZAA (AUCKLAND INTL AR, NZ) observed 0730 UTC 18 August 2019
Temperature: 9.0°C (48°F)
Dewpoint: 6.0°C (43°F) [RH = 81%]
Pressure (altimeter): 30.15 inches Hg (1021.0 mb)
Winds: from the SE (140 degrees) at 7 MPH (6 knots; 3.1 m/s)
Visibility: 6 or more miles (10+ km)
Ceiling: 7000 feet AGL
Clouds: broken clouds at 7000 feet AGL
Weather: no significant weather observed at this time

METAR text: NZAA 180700Z AUTO 13005KT 9999 BKN070/// 09/06 Q1021 NOSIG
Conditions at: NZAA (AUCKLAND INTL AR, NZ) observed 0700 UTC 18 August 2019
Temperature: 9.0°C (48°F)
Dewpoint: 6.0°C (43°F) [RH = 81%]
Pressure (altimeter): 30.15 inches Hg (1021.0 mb)
Winds: from the SE (130 degrees) at 6 MPH (5 knots; 2.6 m/s)
Visibility: 6 or more miles (10+ km)
Ceiling: 7000 feet AGL
Clouds: broken clouds at 7000 feet AGL
Weather: no significant weather observed at this time

METAR text: NZAA 180630Z AUTO 13007KT 9999 OVC065/// 10/06 Q1020 NOSIG
Conditions at: NZAA (AUCKLAND INTL AR, NZ) observed 0630 UTC 18 August 2019
Temperature: 10.0°C (50°F)
Dewpoint: 6.0°C (43°F) [RH = 76%]
Pressure (altimeter): 30.12 inches Hg (1020.0 mb)
Winds: from the SE (130 degrees) at 8 MPH (7 knots; 3.6 m/s)
Visibility: 6 or more miles (10+ km)
Ceiling: 6500 feet AGL
Clouds: overcast cloud deck at 6500 feet AGL
Weather: no significant weather observed at this time

Forecast for: NZAA (AUCKLAND INTL AR, NZ)
Text: TAF NZAA 191702Z 1918/2018 08008KT 9999 -SHRA SCT030 BKN050
Forecast period: 1800 to 1900 UTC 19 August 2019
Forecast type: FROM: standard forecast or significant change
Winds: from the E (80 degrees) at 9 MPH (8 knots; 4.1 m/s)
Visibility: 6 or more miles 10+ km)
Ceiling: 5000 feet AGL
Clouds: scattered clouds at 3000 feet AGL
broken clouds at 5000 feet AGL
Weather: -SHRA  (light rain showers)
Text: BECMG 1919/1921 03015G25KT
Forecast period: 1900 UTC 19 August 2019 to 0800 UTC 20 August 2019
Forecast type: BECOMING: Conditions expected to become as follows by 2100 UTC 19 August 2019
Winds: from the NNE (30 degrees) at 17 MPH (15 knots; 7.7 m/s)
gusting to 29 MPH (25 knots; 12.9 m/s)
Visibility: 6 or more miles 10+ km)
Ceiling: 5000 feet AGL
Clouds: scattered clouds at 3000 feet AGL
broken clouds at 5000 feet AGL
Weather: -SHRA  (light rain showers)
Text: TEMPO 2006/2016 6000 RA BKN014 FEW020TCU
Forecast period: 0600 to 1600 UTC 20 August 2019
Forecast type: TEMPORARY: The following changes expected for less than half the time period
Visibility: 4 miles (6 km)
Ceiling: 1400 feet AGL
Clouds: broken clouds at 1400 feet AGL
few clouds at 2000 feet AGL
Weather: RA  (moderate rain)
Text: BECMG 2008/2010 03018G35KT
Forecast period: 0800 to 1200 UTC 20 August 2019
Forecast type: BECOMING: Conditions expected to become as follows by 1000 UTC 20 August 2019
Winds: from the NNE (30 degrees) at 21 MPH (18 knots; 9.3 m/s)
gusting to 40 MPH (35 knots; 18.0 m/s)
Visibility: 6 or more miles 10+ km)
Ceiling: 5000 feet AGL
Clouds: scattered clouds at 3000 feet AGL
broken clouds at 5000 feet AGL
Weather: -SHRA  (light rain showers)
Text: BECMG 2012/2014 30008KT
Forecast period: 1200 to 1600 UTC 20 August 2019
Forecast type: BECOMING: Conditions expected to become as follows by 1400 UTC 20 August 2019
Winds: from the WNW (300 degrees) at 9 MPH (8 knots; 4.1 m/s)
Visibility: 6 or more miles 10+ km)
Ceiling: 5000 feet AGL
Clouds: scattered clouds at 3000 feet AGL
broken clouds at 5000 feet AGL
Weather: -SHRA  (light rain showers)
Text: PROB30
Forecast period: 1200 to 1400 UTC 20 August 2019
Forecast type: TEMPORARY: The following changes expected for less than half the time period
Visibility: 1.86 miles (2.99 km)
Ceiling: 1000 feet AGL
Clouds: broken clouds at 1000 feet AGL
few clouds at 2000 feet AGL
Weather: +SHRA  (heavy rain showers)
Text: TEMPO 2012/2014 3000 +SHRA BKN010 FEW020CB
Forecast period: 1600 to 1800 UTC 20 August 2019
Forecast type: BECOMING: Conditions expected to become as follows by 1800 UTC 20 August 2019
Winds: from the WSW (240 degrees) at 17 MPH (15 knots; 7.7 m/s)
gusting to 34 MPH (30 knots; 15.4 m/s)
Visibility: 6 or more miles 10+ km)
Ceiling: 5000 feet AGL
Clouds: scattered clouds at 3000 feet AGL
broken clouds at 5000 feet AGL
Weather: -SHRA  (light rain showers)
Text: BECMG 2016/2018 24015G30KT
Forecast period: 1600 to 1800 UTC 20 August 2019
Forecast type: TEMPORARY: The following changes expected for less than half the time period
Visibility: 4 miles (6 km)
Ceiling: unknown
Clouds: missing
Weather: SHRA  (rain showers)